Time;durP1;ratioP1;P1;durP2;ratioP2;P2;SDS_P1;SDS_P2;PMS_P1;PMS_P2;Temp;Humidity;BMP_temperature;BMP_pressure;BME280_temperature;BME280_humidity;BME280_pressure;Samples;Min_cycle;Max_cycle;Signal;HPM_P1;HPM_P2
2022/08/14 00:00:17;;;;;;;8.98;5.85;;;22.70;99.90;;;;;;5073342;28;20029;-69
2022/08/14 00:02:43;;;;;;;11.65;5.97;;;22.60;99.90;;;;;;5073300;28;20129;-70
2022/08/14 00:05:14;;;;;;;11.05;6.13;;;22.60;99.90;;;;;;5072901;28;20039;-68
2022/08/14 00:07:40;;;;;;;11.32;6.60;;;22.60;99.90;;;;;;5073014;28;20025;-68
2022/08/14 00:10:08;;;;;;;13.18;6.57;;;22.60;99.90;;;;;;5073444;28;20020;-69
2022/08/14 00:12:37;;;;;;;13.27;7.05;;;22.50;99.90;;;;;;5077510;28;20025;-69
2022/08/14 00:15:26;;;;;;;10.30;6.68;;;22.50;99.90;;;;;;5072305;28;20128;-69
2022/08/14 00:17:52;;;;;;;13.45;7.00;;;22.50;99.90;;;;;;5072443;28;20032;-68
2022/08/14 00:20:20;;;;;;;10.32;6.38;;;22.50;99.90;;;;;;5073204;28;20024;-70
2022/08/14 00:22:46;;;;;;;11.98;6.88;;;22.50;99.90;;;;;;5073075;28;20469;-68
2022/08/14 00:25:11;;;;;;;10.27;6.85;;;22.50;99.90;;;;;;5073210;28;20418;-68
2022/08/14 00:27:37;;;;;;;9.73;6.30;;;22.40;99.90;;;;;;5072732;28;20126;-68
2022/08/14 00:30:05;;;;;;;9.90;6.60;;;22.40;99.90;;;;;;5073227;28;20028;-68
2022/08/14 00:32:31;;;;;;;16.92;7.57;;;22.40;99.90;;;;;;5072701;28;20013;-69
2022/08/14 00:35:00;;;;;;;9.50;7.25;;;22.40;99.90;;;;;;5072809;28;20017;-69
2022/08/14 00:37:27;;;;;;;10.43;7.38;;;22.30;99.90;;;;;;5072975;28;20033;-68
2022/08/14 00:39:52;;;;;;;10.63;7.40;;;22.30;99.90;;;;;;5072741;28;20021;-69
2022/08/14 00:42:19;;;;;;;13.50;7.90;;;22.30;99.90;;;;;;5072829;28;20020;-68
2022/08/14 00:44:45;;;;;;;13.68;8.00;;;22.30;99.90;;;;;;5060558;28;20027;-70
2022/08/14 00:47:13;;;;;;;12.38;7.78;;;22.30;99.90;;;;;;5052678;28;20033;-72
2022/08/14 00:49:39;;;;;;;13.60;7.60;;;22.20;99.90;;;;;;5052599;28;20450;-69
2022/08/14 00:52:05;;;;;;;10.65;7.57;;;22.20;99.90;;;;;;5052641;28;20025;-69
2022/08/14 00:54:30;;;;;;;12.13;7.93;;;22.30;99.90;;;;;;5053627;28;20017;-72
2022/08/14 00:56:56;;;;;;;12.82;8.27;;;22.20;99.90;;;;;;5056585;28;20339;-69
2022/08/14 00:59:27;;;;;;;14.23;8.57;;;22.20;99.90;;;;;;5056702;28;20052;-70
2022/08/14 01:01:58;;;;;;;13.43;8.35;;;22.20;99.90;;;;;;5056404;28;20025;-67
2022/08/14 01:04:25;;;;;;;14.80;8.57;;;22.20;99.90;;;;;;5056142;28;20029;-72
2022/08/14 01:06:52;;;;;;;12.52;8.35;;;22.20;99.90;;;;;;5055702;28;20414;-67
2022/08/14 01:09:21;;;;;;;12.07;7.82;;;22.10;99.90;;;;;;5056076;28;20088;-66
2022/08/14 01:11:51;;;;;;;13.40;7.65;;;22.10;99.90;;;;;;5055949;28;20040;-67
2022/08/14 01:14:18;;;;;;;13.82;7.82;;;22.10;99.90;;;;;;5055658;28;20036;-67
2022/08/14 01:16:45;;;;;;;11.30;7.75;;;22.00;99.90;;;;;;5055759;28;20098;-68
2022/08/14 01:21:55;;;;;;;13.55;8.13;;;22.00;99.90;;;;;;5056522;28;20529;-70
2022/08/14 01:24:22;;;;;;;10.75;7.25;;;22.00;99.90;;;;;;5055467;28;20108;-68
2022/08/14 01:26:48;;;;;;;13.88;8.10;;;21.90;99.90;;;;;;5055475;28;20474;-67
2022/08/14 01:29:14;;;;;;;14.52;8.18;;;21.90;99.90;;;;;;5055401;28;20027;-68
2022/08/14 01:31:44;;;;;;;13.27;7.88;;;21.90;99.90;;;;;;5054324;28;20029;-70
2022/08/14 01:34:09;;;;;;;15.63;8.45;;;21.80;99.90;;;;;;5055391;28;20069;-68
2022/08/14 01:36:36;;;;;;;14.05;8.80;;;21.90;99.90;;;;;;5055689;28;20033;-70
2022/08/14 01:39:06;;;;;;;13.07;8.18;;;21.80;99.90;;;;;;5054934;28;20025;-67
2022/08/14 01:41:32;;;;;;;11.48;8.35;;;21.80;99.90;;;;;;5055672;28;20025;-66
2022/08/14 01:44:01;;;;;;;13.93;7.95;;;21.80;99.90;;;;;;5060942;28;20048;-70
2022/08/14 01:46:33;;;;;;;17.33;8.60;;;21.80;99.90;;;;;;5075398;28;20047;-69
2022/08/14 01:49:00;;;;;;;;;;;21.80;99.90;;;;;;5075215;28;20455;-67
2022/08/14 01:51:27;;;;;;;12.38;8.63;;;21.80;99.90;;;;;;5075192;28;19911;-70
2022/08/14 01:54:12;;;;;;;14.65;8.20;;;21.70;99.90;;;;;;5075475;28;20020;-67
2022/08/14 01:56:39;;;;;;;15.93;8.95;;;21.70;99.90;;;;;;5074821;28;20028;-67
2022/08/14 01:59:20;;;;;;;16.80;8.55;;;21.70;99.90;;;;;;5074140;28;20047;-68
2022/08/14 02:01:50;;;;;;;15.43;9.02;;;21.60;99.90;;;;;;5074443;28;20437;-70
2022/08/14 02:04:16;;;;;;;14.23;8.88;;;21.70;99.90;;;;;;5074017;28;20025;-71
2022/08/14 02:06:43;;;;;;;16.88;8.80;;;21.60;99.90;;;;;;5073288;28;20067;-70
2022/08/14 02:09:09;;;;;;;14.75;8.95;;;21.60;99.90;;;;;;5073757;28;20016;-70
2022/08/14 02:11:35;;;;;;;18.00;9.52;;;21.60;99.90;;;;;;5074172;28;20067;-71
2022/08/14 02:14:05;;;;;;;14.27;9.00;;;21.60;99.90;;;;;;5073925;28;20027;-68
2022/08/14 02:16:37;;;;;;;17.13;9.30;;;21.60;99.90;;;;;;5073351;28;20027;-68
2022/08/14 02:19:06;;;;;;;13.88;9.23;;;21.60;99.90;;;;;;5072422;28;20029;-67
2022/08/14 02:21:32;;;;;;;14.45;8.25;;;21.60;99.90;;;;;;5072326;28;20339;-67
2022/08/14 02:24:00;;;;;;;13.80;9.18;;;21.60;99.90;;;;;;5072303;28;20016;-67
2022/08/14 02:26:32;;;;;;;15.90;9.13;;;21.60;99.90;;;;;;5073292;28;20103;-69
2022/08/14 02:29:00;;;;;;;12.27;8.07;;;21.50;99.90;;;;;;5073252;28;20360;-69
2022/08/14 02:31:32;;;;;;;13.55;8.85;;;21.50;99.90;;;;;;5071932;28;20112;-68
2022/08/14 02:33:59;;;;;;;12.97;8.47;;;21.50;99.90;;;;;;5072320;28;20028;-68
2022/08/14 02:36:26;;;;;;;14.35;8.60;;;21.40;99.90;;;;;;5071574;28;20314;-67
2022/08/14 02:38:52;;;;;;;14.10;8.80;;;21.40;99.90;;;;;;5072807;28;20419;-69
2022/08/14 02:41:17;;;;;;;13.10;8.18;;;21.30;99.90;;;;;;5073083;28;20090;-67
2022/08/14 02:43:44;;;;;;;13.40;8.75;;;21.30;99.90;;;;;;5072545;28;20020;-68
2022/08/14 02:46:10;;;;;;;14.80;9.38;;;21.30;99.90;;;;;;5073274;28;20035;-68
2022/08/14 02:48:38;;;;;;;15.77;8.90;;;21.20;99.90;;;;;;5073453;28;20100;-67
2022/08/14 02:51:10;;;;;;;18.23;10.43;;;21.20;99.90;;;;;;5073130;28;20036;-72
2022/08/14 02:53:44;;;;;;;17.63;9.43;;;21.20;99.90;;;;;;5073033;28;20020;-68
2022/08/14 02:56:16;;;;;;;13.43;9.00;;;21.20;99.90;;;;;;5072848;28;20025;-67
2022/08/14 02:58:45;;;;;;;16.37;10.37;;;21.20;99.90;;;;;;5027185;28;1314738;-69
2022/08/14 03:01:12;;;;;;;15.63;9.82;;;21.10;99.90;;;;;;5073732;28;20414;-67
2022/08/14 03:03:38;;;;;;;15.50;9.43;;;21.10;99.90;;;;;;5074104;28;20020;-69
2022/08/14 03:06:05;;;;;;;16.92;10.13;;;21.10;99.90;;;;;;5074001;28;20020;-68
2022/08/14 03:08:32;;;;;;;17.95;10.73;;;21.10;99.90;;;;;;5075521;28;20517;-67
2022/08/14 03:11:05;;;;;;;15.80;10.45;;;21.10;99.90;;;;;;5079592;28;20075;-68
2022/08/14 03:13:33;;;;;;;18.45;11.38;;;21.00;99.90;;;;;;5074062;28;20013;-67
2022/08/14 03:15:59;;;;;;;18.17;11.15;;;21.00;99.90;;;;;;5073626;28;20104;-68
2022/08/14 03:18:26;;;;;;;17.23;10.65;;;21.00;99.90;;;;;;5072682;28;20166;-67
2022/08/14 03:20:51;;;;;;;19.88;11.95;;;20.90;99.90;;;;;;5073856;28;20484;-67
2022/08/14 03:23:18;;;;;;;20.48;12.25;;;20.90;99.90;;;;;;5073290;28;20024;-68
2022/08/14 03:25:45;;;;;;;21.42;11.80;;;20.90;99.90;;;;;;5073598;28;20023;-68
2022/08/14 03:28:11;;;;;;;20.00;12.50;;;20.90;99.90;;;;;;5073548;28;20026;-72
2022/08/14 03:30:38;;;;;;;21.15;12.65;;;20.90;99.90;;;;;;5073126;28;20095;-67
2022/08/14 03:33:04;;;;;;;22.42;12.43;;;20.90;99.90;;;;;;5072945;28;20068;-70
2022/08/14 03:35:31;;;;;;;21.52;13.40;;;20.80;99.90;;;;;;5073296;28;20021;-66
2022/08/14 03:38:09;;;;;;;24.48;13.60;;;20.80;99.90;;;;;;5073087;28;20127;-68
2022/08/14 03:40:37;;;;;;;21.40;13.57;;;20.70;99.90;;;;;;5073158;28;20043;-67
2022/08/14 03:43:07;;;;;;;22.42;13.63;;;20.70;99.90;;;;;;5073026;28;20024;-68
2022/08/14 03:45:37;;;;;;;23.42;13.60;;;20.70;99.90;;;;;;5071576;28;20023;-67
2022/08/14 03:48:14;;;;;;;21.58;13.43;;;20.70;99.90;;;;;;5073300;28;20032;-67
2022/08/14 03:50:43;;;;;;;20.25;13.70;;;20.70;99.90;;;;;;5073149;28;20112;-68
2022/08/14 03:53:10;;;;;;;21.20;13.93;;;20.70;99.90;;;;;;5073168;28;20016;-68
2022/08/14 03:55:37;;;;;;;20.50;13.05;;;20.70;99.90;;;;;;5072866;28;20023;-67
2022/08/14 03:58:05;;;;;;;22.13;13.52;;;20.60;99.90;;;;;;5072552;28;20044;-67
2022/08/14 04:00:31;;;;;;;21.95;13.68;;;20.60;99.90;;;;;;5072902;28;20541;-68
2022/08/14 04:02:56;;;;;;;21.98;13.73;;;20.60;99.90;;;;;;5072860;28;20103;-67
2022/08/14 04:05:37;;;;;;;23.15;14.45;;;20.60;99.90;;;;;;5071129;28;20104;-67
2022/08/14 04:08:04;;;;;;;22.40;13.45;;;20.50;99.90;;;;;;5053113;28;20063;-67
2022/08/14 04:10:30;;;;;;;20.13;13.40;;;20.50;99.90;;;;;;5052633;28;20024;-67
2022/08/14 04:12:59;;;;;;;21.27;13.73;;;20.50;99.90;;;;;;5052339;28;20370;-68
2022/08/14 04:15:25;;;;;;;21.90;14.30;;;20.50;99.90;;;;;;5052658;28;20017;-70
2022/08/14 04:17:53;;;;;;;20.80;13.25;;;20.50;99.90;;;;;;5052626;28;20037;-68
2022/08/14 04:20:19;;;;;;;21.02;13.43;;;20.50;99.90;;;;;;5052906;28;20013;-71
2022/08/14 04:22:45;;;;;;;18.95;12.88;;;20.40;99.90;;;;;;5062760;28;20024;-69
2022/08/14 04:25:11;;;;;;;22.00;13.63;;;20.40;99.90;;;;;;5072220;28;20457;-67
2022/08/14 04:27:37;;;;;;;22.23;12.85;;;20.40;99.90;;;;;;5071575;28;20037;-67
2022/08/14 04:30:04;;;;;;;20.85;13.68;;;20.40;99.90;;;;;;5071598;28;20354;-70
2022/08/14 04:32:32;;;;;;;20.55;13.13;;;20.40;99.90;;;;;;5071538;28;20025;-69
2022/08/14 04:35:01;;;;;;;21.08;12.40;;;20.40;99.90;;;;;;5072554;28;20025;-67
2022/08/14 04:45:40;;;;;;;22.40;11.43;;;20.40;99.90;;;;;;5072664;28;20067;-68
2022/08/14 04:48:15;;;;;;;18.40;11.73;;;20.40;99.90;;;;;;5070850;28;20096;-68
2022/08/14 04:50:49;;;;;;;19.13;11.93;;;20.40;99.90;;;;;;5070839;28;20024;-70
2022/08/14 04:53:18;;;;;;;18.23;12.18;;;20.40;99.90;;;;;;5072383;28;20459;-69
2022/08/14 04:55:47;;;;;;;21.65;13.30;;;20.50;99.90;;;;;;5072498;28;20021;-69
2022/08/14 04:58:15;;;;;;;19.23;12.48;;;20.50;99.90;;;;;;5071983;28;20044;-69
2022/08/14 05:00:41;;;;;;;20.10;12.52;;;20.60;99.90;;;;;;5070846;28;20316;-67
2022/08/14 05:03:07;;;;;;;22.98;12.88;;;20.60;99.90;;;;;;5072159;28;20094;-66
2022/08/14 05:05:33;;;;;;;18.80;11.82;;;20.60;99.90;;;;;;5072824;28;20025;-69
2022/08/14 05:08:11;;;;;;;18.48;11.18;;;20.60;99.90;;;;;;5072519;28;20354;-68
2022/08/14 05:10:41;;;;;;;18.67;11.02;;;20.70;99.90;;;;;;5072323;28;20039;-71
2022/08/14 05:13:08;;;;;;;17.48;11.35;;;20.70;99.90;;;;;;5072660;28;20362;-69
2022/08/14 05:15:35;;;;;;;16.85;10.57;;;20.70;99.90;;;;;;5072574;28;20021;-69
2022/08/14 05:18:12;;;;;;;19.75;10.93;;;20.70;99.90;;;;;;5072758;28;20174;-69
2022/08/14 05:20:41;;;;;;;17.42;10.43;;;20.80;99.90;;;;;;5072709;28;20020;-72
2022/08/14 05:23:06;;;;;;;16.67;9.77;;;20.80;99.90;;;;;;5072607;28;20059;-69
2022/08/14 05:25:33;;;;;;;16.80;10.00;;;20.90;99.90;;;;;;5072377;28;20463;-72
2022/08/14 05:28:10;;;;;;;14.23;9.20;;;21.00;99.90;;;;;;5072519;28;20158;-70
2022/08/14 05:30:37;;;;;;;15.48;8.98;;;21.00;99.90;;;;;;5072541;28;20021;-69
2022/08/14 05:33:03;;;;;;;14.80;8.75;;;21.10;99.90;;;;;;5072629;28;20047;-68
2022/08/14 05:35:31;;;;;;;13.80;8.40;;;21.10;99.90;;;;;;5072677;28;20025;-71
2022/08/14 05:37:57;;;;;;;14.27;8.05;;;21.30;99.90;;;;;;5072497;28;20041;-68
2022/08/14 05:40:23;;;;;;;15.70;8.27;;;21.30;99.90;;;;;;5072657;28;20108;-67
2022/08/14 05:42:48;;;;;;;14.10;8.75;;;21.40;99.90;;;;;;5075637;28;20430;-68
2022/08/14 05:45:16;;;;;;;15.05;8.15;;;21.40;99.90;;;;;;5075843;28;20032;-70
2022/08/14 05:47:41;;;;;;;14.05;8.45;;;21.50;99.90;;;;;;5075928;28;20027;-70
2022/08/14 05:50:10;;;;;;;12.68;8.27;;;21.60;99.90;;;;;;5075699;28;20024;-70
2022/08/14 05:52:35;;;;;;;14.68;7.90;;;21.70;99.90;;;;;;5075863;28;20020;-71
2022/08/14 05:55:02;;;;;;;14.40;8.15;;;21.80;99.90;;;;;;5075562;28;20446;-69
2022/08/14 05:57:28;;;;;;;12.20;8.20;;;21.80;99.90;;;;;;5073742;28;20382;-68
2022/08/14 05:59:54;;;;;;;13.65;7.88;;;21.90;99.90;;;;;;5075544;28;20422;-72
2022/08/14 06:02:19;;;;;;;12.10;7.70;;;22.00;99.90;;;;;;5075937;28;20416;-70
2022/08/14 06:04:47;;;;;;;12.20;7.20;;;22.10;99.90;;;;;;5075642;28;20095;-68
2022/08/14 06:07:13;;;;;;;11.65;8.15;;;22.30;99.90;;;;;;5060560;28;20024;-67
2022/08/14 06:09:39;;;;;;;13.85;8.18;;;22.40;99.90;;;;;;5070280;28;20025;-71
2022/08/14 06:12:06;;;;;;;11.73;7.50;;;22.50;99.90;;;;;;5079120;28;20025;-68
2022/08/14 06:14:32;;;;;;;14.32;7.82;;;22.70;99.90;;;;;;5076537;28;20102;-68
2022/08/14 06:16:58;;;;;;;12.82;7.43;;;22.80;99.90;;;;;;5074179;28;20059;-69
2022/08/14 06:19:23;;;;;;;10.15;7.18;;;23.00;99.90;;;;;;5066335;28;20373;-67
2022/08/14 06:21:49;;;;;;;13.50;7.63;;;23.20;99.90;;;;;;5064001;28;20025;-68
2022/08/14 06:24:15;;;;;;;12.32;7.35;;;23.30;99.90;;;;;;5075132;28;20035;-71
2022/08/14 06:26:40;;;;;;;13.45;7.28;;;23.50;99.90;;;;;;5074864;28;20025;-71
2022/08/14 06:29:06;;;;;;;12.48;7.45;;;23.70;99.90;;;;;;5075249;28;20118;-68
2022/08/14 06:31:32;;;;;;;12.93;7.50;;;24.00;99.70;;;;;;5075045;28;20025;-72
2022/08/14 06:33:58;;;;;;;12.30;7.20;;;24.40;99.10;;;;;;5074862;28;20025;-68
2022/08/14 06:36:23;;;;;;;12.30;7.30;;;24.90;98.20;;;;;;5074867;28;20058;-69
2022/08/14 06:38:51;;;;;;;10.05;7.05;;;25.50;97.30;;;;;;5075077;28;20037;-68
2022/08/14 06:41:17;;;;;;;10.80;7.00;;;26.20;96.30;;;;;;5075125;28;20107;-67
2022/08/14 06:43:43;;;;;;;10.98;6.45;;;27.00;94.80;;;;;;5074953;28;20107;-68
2022/08/14 06:46:08;;;;;;;10.27;6.63;;;27.60;93.30;;;;;;5074456;28;20020;-70
2022/08/14 06:48:34;;;;;;;9.50;6.50;;;28.10;92.50;;;;;;5075024;28;20027;-67
2022/08/14 06:50:59;;;;;;;14.80;6.68;;;28.60;91.30;;;;;;5074673;28;20020;-71
2022/08/14 06:53:25;;;;;;;10.93;6.57;;;29.20;90.50;;;;;;5073601;28;20017;-68
2022/08/14 06:55:50;;;;;;;12.55;6.60;;;29.80;89.10;;;;;;5074680;28;20061;-68
2022/08/14 06:58:17;;;;;;;10.32;6.15;;;30.40;86.70;;;;;;5074457;28;20120;-70
2022/08/14 07:05:44;;;;;;;9.00;5.97;;;31.00;84.50;;;;;;5074462;28;20025;-68
2022/08/14 07:06:15;;;;;;;8.48;5.88;;;32.10;80.60;;;;;;5074736;28;20479;-70
2022/08/14 07:08:43;;;;;;;9.45;5.47;;;32.30;78.60;;;;;;5074220;28;20016;-70
2022/08/14 07:11:09;;;;;;;8.95;5.35;;;32.30;77.80;;;;;;5072869;28;20063;-68
2022/08/14 07:13:35;;;;;;;8.10;5.72;;;32.40;77.30;;;;;;5074291;28;20307;-69
2022/08/14 07:16:00;;;;;;;11.57;6.47;;;32.50;77.00;;;;;;5074147;28;20050;-68
2022/08/14 07:18:29;;;;;;;8.52;5.75;;;32.50;76.40;;;;;;5074116;28;20028;-68
2022/08/14 07:20:56;;;;;;;9.18;6.18;;;32.50;76.20;;;;;;5073979;28;20103;-68
2022/08/14 07:23:22;;;;;;;8.45;5.95;;;32.50;76.00;;;;;;5074375;28;20025;-68
2022/08/14 07:25:51;;;;;;;8.23;6.20;;;32.30;76.00;;;;;;5065907;28;20175;-71
2022/08/14 07:28:19;;;;;;;11.55;6.40;;;32.00;76.40;;;;;;5063344;28;20033;-67
2022/08/14 07:30:45;;;;;;;9.98;6.53;;;31.60;77.30;;;;;;5073811;28;20024;-71
2022/08/14 07:33:11;;;;;;;10.60;5.88;;;31.20;77.60;;;;;;5073688;28;20507;-69
2022/08/14 07:35:39;;;;;;;9.00;5.97;;;30.90;78.60;;;;;;5073386;28;20478;-70
2022/08/14 07:38:06;;;;;;;8.45;5.57;;;30.50;79.00;;;;;;5073624;28;20024;-68
2022/08/14 07:40:33;;;;;;;9.43;5.93;;;30.00;79.90;;;;;;5072235;28;20055;-68
2022/08/14 07:42:59;;;;;;;11.05;6.80;;;29.60;81.50;;;;;;5073484;28;20107;-69
2022/08/14 07:45:26;;;;;;;10.30;6.95;;;29.40;82.40;;;;;;5073664;28;20031;-70
2022/08/14 07:47:55;;;;;;;12.07;5.90;;;29.40;82.60;;;;;;5073312;28;20064;-72
2022/08/14 07:50:20;;;;;;;8.40;5.93;;;29.30;81.90;;;;;;5073528;28;20031;-67
2022/08/14 07:52:48;;;;;;;11.25;6.00;;;29.20;82.20;;;;;;5073370;28;20021;-68
2022/08/14 07:55:15;;;;;;;10.75;6.47;;;29.30;82.80;;;;;;5073439;28;20048;-68
2022/08/14 07:57:43;;;;;;;10.88;6.25;;;29.60;81.90;;;;;;5073314;28;20530;-68
2022/08/14 08:00:23;;;;;;;8.50;5.32;;;29.80;81.20;;;;;;5073068;28;20024;-68
2022/08/14 08:02:53;;;;;;;9.75;6.10;;;30.10;80.70;;;;;;5073541;28;20051;-68
2022/08/14 08:05:20;;;;;;;10.50;6.15;;;30.50;80.20;;;;;;5072929;28;20058;-69
2022/08/14 08:07:46;;;;;;;13.13;6.30;;;31.10;79.30;;;;;;5073380;28;20115;-71
2022/08/14 08:10:30;;;;;;;11.68;5.93;;;31.80;78.00;;;;;;5071164;28;20025;-72
2022/08/14 08:12:59;;;;;;;8.57;5.78;;;32.50;76.10;;;;;;5073095;28;20370;-69
2022/08/14 08:15:28;;;;;;;9.52;6.03;;;33.10;75.00;;;;;;5073095;28;20020;-68
2022/08/14 08:17:54;;;;;;;7.72;6.38;;;33.90;73.70;;;;;;5073089;28;20036;-68
2022/08/14 08:20:25;;;;;;;10.00;6.10;;;34.80;71.50;;;;;;5073241;28;20021;-68
2022/08/14 08:22:55;;;;;;;6.68;5.35;;;35.70;69.30;;;;;;5073392;28;20374;-69
2022/08/14 08:25:21;;;;;;;10.15;5.80;;;36.10;67.70;;;;;;5073237;28;20024;-72
2022/08/14 08:27:59;;;;;;;7.93;6.00;;;36.60;67.20;;;;;;5073166;28;20505;-68
2022/08/14 08:30:25;;;;;;;12.50;5.90;;;37.50;66.20;;;;;;5073413;28;20480;-69
2022/08/14 08:32:53;;;;;;;9.30;5.72;;;38.20;64.20;;;;;;5073105;28;20358;-71
2022/08/14 08:35:27;;;;;;;10.13;5.10;;;38.50;61.60;;;;;;5073051;28;20020;-71
2022/08/14 08:37:59;;;;;;;7.10;5.43;;;38.80;61.20;;;;;;5073081;28;20028;-71
2022/08/14 08:40:36;;;;;;;6.10;5.40;;;39.20;60.60;;;;;;5073071;28;20025;-68
2022/08/14 08:43:07;;;;;;;6.55;5.72;;;39.80;59.60;;;;;;5072661;28;20062;-68
2022/08/14 08:45:34;;;;;;;7.35;5.35;;;40.40;58.90;;;;;;5072571;28;20477;-67
2022/08/14 08:48:01;;;;;;;8.07;5.95;;;41.10;57.70;;;;;;5072850;28;20048;-69
2022/08/14 08:50:36;;;;;;;9.27;5.00;;;41.70;56.30;;;;;;5072309;28;20358;-69
2022/08/14 08:53:06;;;;;;;7.22;5.00;;;42.20;55.30;;;;;;5073030;28;20017;-70
2022/08/14 08:55:38;;;;;;;8.38;5.75;;;42.80;53.50;;;;;;5072870;28;20024;-71
2022/08/14 08:58:06;;;;;;;7.40;5.40;;;43.00;53.00;;;;;;5071233;28;20044;-68
2022/08/14 09:00:34;;;;;;;7.25;4.97;;;43.40;52.70;;;;;;5072473;28;20366;-69
2022/08/14 09:03:02;;;;;;;6.30;5.50;;;43.70;52.30;;;;;;5072268;28;20051;-69
2022/08/14 09:05:30;;;;;;;7.72;5.22;;;44.00;51.80;;;;;;5073211;28;20047;-71
2022/08/14 09:08:18;;;;;;;6.20;4.93;;;44.10;51.80;;;;;;5074764;28;20031;-68
2022/08/14 09:10:45;;;;;;;5.30;4.78;;;44.20;51.10;;;;;;5077318;28;20024;-68
2022/08/14 09:13:11;;;;;;;7.32;5.18;;;44.30;50.80;;;;;;5077613;28;20052;-68
2022/08/14 09:15:45;;;;;;;11.25;5.15;;;44.60;50.40;;;;;;5075507;28;20020;-68
2022/08/14 09:18:12;;;;;;;6.60;5.15;;;45.00;49.50;;;;;;5066770;28;20107;-73
2022/08/14 09:20:39;;;;;;;8.00;5.30;;;45.10;49.20;;;;;;5074561;28;20029;-70
2022/08/14 09:23:07;;;;;;;8.43;5.68;;;45.20;49.20;;;;;;5076399;28;20017;-67
2022/08/14 09:25:34;;;;;;;7.78;5.38;;;45.20;48.50;;;;;;5070431;28;20019;-68
2022/08/14 09:27:59;;;;;;;8.40;5.07;;;45.30;48.70;;;;;;5056086;28;20483;-69
2022/08/14 09:30:25;;;;;;;7.82;5.20;;;45.40;47.60;;;;;;5056348;28;20025;-67
2022/08/14 09:33:02;;;;;;;9.07;5.22;;;45.40;47.30;;;;;;5056146;28;20025;-68
2022/08/14 09:36:06;;;;;;;6.38;5.05;;;45.40;47.30;;;;;;5073441;28;20055;-70
2022/08/14 09:38:32;;;;;;;8.32;5.20;;;45.30;47.90;;;;;;5075851;28;20045;-70
2022/08/14 09:41:01;;;;;;;7.45;5.60;;;45.60;47.90;;;;;;5074737;28;20031;-68
2022/08/14 09:43:29;;;;;;;7.18;5.68;;;45.60;47.80;;;;;;5075981;28;20031;-68
2022/08/14 09:45:57;;;;;;;10.30;5.60;;;45.70;47.60;;;;;;5075997;28;20024;-70
2022/08/14 09:48:25;;;;;;;8.48;5.28;;;45.90;47.50;;;;;;5075613;28;20021;-69
2022/08/14 09:50:52;;;;;;;9.20;6.15;;;46.10;47.40;;;;;;5072299;28;20024;-68
2022/08/14 09:53:40;;;;;;;7.03;5.93;;;46.10;47.00;;;;;;5055737;28;20520;-70
2022/08/14 09:56:07;;;;;;;7.05;6.30;;;46.10;48.00;;;;;;5055890;28;20017;-68
2022/08/14 09:58:42;;;;;;;6.68;5.72;;;46.30;47.10;;;;;;5055199;28;20045;-69
2022/08/14 10:01:19;;;;;;;6.85;5.35;;;46.10;47.30;;;;;;5055459;28;20044;-69
2022/08/14 10:03:54;;;;;;;6.68;5.60;;;46.10;46.70;;;;;;5055667;28;20032;-71
2022/08/14 10:06:28;;;;;;;9.30;5.57;;;46.10;46.50;;;;;;5055811;28;20021;-68
2022/08/14 10:09:01;;;;;;;8.63;5.35;;;46.20;46.90;;;;;;5054351;28;20048;-70
2022/08/14 10:11:32;;;;;;;6.40;5.68;;;46.40;46.50;;;;;;5069201;28;20062;-69
2022/08/14 10:14:10;;;;;;;7.88;5.40;;;46.40;46.30;;;;;;5075507;28;20035;-72
2022/08/14 10:16:45;;;;;;;7.88;4.88;;;46.40;45.30;;;;;;5073966;28;20025;-69
2022/08/14 10:19:13;;;;;;;7.93;5.00;;;46.50;45.30;;;;;;5073720;28;20362;-68
2022/08/14 10:21:42;;;;;;;8.00;4.80;;;46.20;45.20;;;;;;5073882;28;20369;-71
2022/08/14 10:24:11;;;;;;;6.68;4.88;;;45.70;44.80;;;;;;5074887;28;20028;-69
2022/08/14 10:26:37;;;;;;;7.20;5.00;;;45.40;45.00;;;;;;5074937;28;20060;-72
2022/08/14 10:29:11;;;;;;;5.82;4.40;;;45.40;45.70;;;;;;5075234;28;20386;-68
2022/08/14 10:31:38;;;;;;;5.70;4.50;;;45.30;44.00;;;;;;5075281;28;20516;-68
2022/08/14 10:34:12;;;;;;;7.13;4.65;;;45.30;44.20;;;;;;5075138;28;20024;-71
2022/08/14 10:36:40;;;;;;;8.32;5.10;;;45.30;44.80;;;;;;5074820;28;20493;-68
2022/08/14 10:39:13;;;;;;;6.13;4.90;;;45.10;45.00;;;;;;5074932;28;20020;-72
2022/08/14 10:41:41;;;;;;;6.22;4.72;;;45.00;45.30;;;;;;5075261;28;20119;-69
2022/08/14 10:44:11;;;;;;;8.00;4.47;;;45.10;44.80;;;;;;5074685;28;20024;-71
2022/08/14 10:46:43;;;;;;;8.40;5.03;;;45.30;44.60;;;;;;5074997;28;20027;-71
2022/08/14 10:49:24;;;;;;;5.57;4.90;;;45.40;44.50;;;;;;5074779;28;20063;-69
2022/08/14 10:52:04;;;;;;;7.63;4.90;;;45.60;44.80;;;;;;5074387;28;20530;-69
2022/08/14 10:54:41;;;;;;;5.25;4.75;;;45.80;44.60;;;;;;5074946;28;20020;-68
2022/08/14 10:57:24;;;;;;;7.10;4.65;;;45.90;44.40;;;;;;5073993;28;20028;-68
2022/08/14 10:59:59;;;;;;;4.78;4.28;;;46.20;43.50;;;;;;5074441;28;20044;-70
2022/08/14 11:02:36;;;;;;;7.95;4.22;;;46.10;43.20;;;;;;5074563;28;20477;-68
2022/08/14 11:05:10;;;;;;;5.53;4.20;;;45.90;43.50;;;;;;5074407;28;20062;-68
2022/08/14 11:07:38;;;;;;;7.28;4.10;;;45.90;43.30;;;;;;5074322;28;20442;-69
2022/08/14 11:10:11;;;;;;;6.40;3.72;;;46.10;43.50;;;;;;5074421;28;20050;-71
2022/08/14 11:12:49;;;;;;;6.22;4.13;;;46.10;42.60;;;;;;5074368;28;20083;-71
2022/08/14 11:15:17;;;;;;;5.10;3.88;;;46.10;43.00;;;;;;5067463;28;20036;-69
2022/08/14 11:17:44;;;;;;;5.78;4.47;;;46.40;42.90;;;;;;5073627;28;20091;-68
2022/08/14 11:20:11;;;;;;;7.05;4.15;;;46.30;43.40;;;;;;5073819;28;20020;-69
2022/08/14 11:22:41;;;;;;;7.22;4.30;;;46.30;43.10;;;;;;5058617;28;20029;-69
2022/08/14 11:25:10;;;;;;;6.47;4.10;;;46.20;43.00;;;;;;5054014;28;20020;-68
2022/08/14 11:27:38;;;;;;;5.22;3.80;;;46.30;43.10;;;;;;5052496;28;20362;-68
2022/08/14 11:30:07;;;;;;;4.22;3.70;;;46.40;42.20;;;;;;5053852;28;20021;-68
2022/08/14 11:32:32;;;;;;;6.13;4.28;;;46.30;42.50;;;;;;5055409;28;20016;-69
2022/08/14 11:35:01;;;;;;;5.43;4.65;;;46.30;42.80;;;;;;5073357;28;20438;-67
2022/08/14 11:37:28;;;;;;;7.75;4.28;;;46.30;42.80;;;;;;5073480;28;20037;-67
2022/08/14 11:39:54;;;;;;;4.85;3.92;;;46.50;42.50;;;;;;5073124;28;20100;-71
2022/08/14 11:42:25;;;;;;;5.15;3.38;;;46.50;42.50;;;;;;5073409;28;20099;-68
2022/08/14 11:44:55;;;;;;;4.93;4.43;;;46.50;42.20;;;;;;5073724;28;20454;-68
2022/08/14 11:47:20;;;;;;;6.23;4.70;;;46.50;42.30;;;;;;5073062;28;20100;-68
2022/08/14 11:49:47;;;;;;;6.57;3.92;;;46.50;42.60;;;;;;5073201;28;20108;-68
2022/08/14 11:52:19;;;;;;;5.95;4.70;;;46.50;42.80;;;;;;5073570;28;20028;-71
2022/08/14 11:54:56;;;;;;;7.50;4.30;;;46.60;42.50;;;;;;5073489;28;20031;-69
2022/08/14 11:57:22;;;;;;;7.10;4.10;;;46.70;42.50;;;;;;5068799;28;20032;-68
2022/08/14 11:59:47;;;;;;;6.22;4.10;;;46.80;42.30;;;;;;5064113;28;20033;-69
2022/08/14 12:02:15;;;;;;;4.50;4.10;;;46.80;42.20;;;;;;5065202;28;20028;-69
2022/08/14 12:04:52;;;;;;;6.60;4.25;;;46.00;42.90;;;;;;5072775;28;20052;-67
2022/08/14 12:07:18;;;;;;;4.60;4.20;;;44.70;43.60;;;;;;5073334;28;20179;-66
2022/08/14 12:09:45;;;;;;;6.68;4.30;;;43.60;44.00;;;;;;5070170;28;20017;-67
2022/08/14 12:12:22;;;;;;;7.53;4.20;;;43.00;44.40;;;;;;5055048;28;20017;-67
2022/08/14 12:14:55;;;;;;;5.85;3.70;;;43.10;44.20;;;;;;5063721;28;20021;-71
2022/08/14 12:17:26;;;;;;;6.53;3.90;;;43.50;43.60;;;;;;5073080;28;20056;-67
2022/08/14 12:19:54;;;;;;;6.07;3.90;;;43.40;44.00;;;;;;5073108;28;20090;-68
2022/08/14 12:22:38;;;;;;;7.70;4.35;;;43.50;43.80;;;;;;5073240;28;20021;-68
2022/08/14 12:25:10;;;;;;;4.13;3.72;;;43.60;43.50;;;;;;5072796;28;20028;-70
2022/08/14 12:27:49;;;;;;;5.38;3.60;;;43.30;43.20;;;;;;5072870;28;20021;-68
2022/08/14 12:30:35;;;;;;;6.07;3.40;;;42.30;43.10;;;;;;5073103;28;20058;-67
2022/08/14 12:33:04;;;;;;;4.10;3.70;;;41.40;43.80;;;;;;5053409;28;20491;-69
2022/08/14 12:35:44;;;;;;;4.65;3.67;;;41.50;43.50;;;;;;5052894;28;20029;-67
2022/08/14 12:38:12;;;;;;;6.60;3.67;;;41.90;43.00;;;;;;5052818;28;20413;-69
2022/08/14 12:40:48;;;;;;;5.50;3.38;;;42.30;43.00;;;;;;5052549;28;20025;-68
2022/08/14 12:43:17;;;;;;;5.43;3.50;;;43.00;42.10;;;;;;5052747;28;20024;-67
2022/08/14 12:45:48;;;;;;;5.80;3.17;;;43.30;41.80;;;;;;5052550;28;20025;-69
2022/08/14 12:48:15;;;;;;;5.57;3.00;;;43.30;41.40;;;;;;5053132;28;20029;-69
2022/08/14 12:50:43;;;;;;;5.93;3.45;;;43.50;40.80;;;;;;5055225;28;20079;-69
2022/08/14 12:53:10;;;;;;;4.40;3.00;;;43.50;41.30;;;;;;5056570;28;20033;-69
2022/08/14 12:55:37;;;;;;;6.45;3.03;;;43.40;41.00;;;;;;5056626;28;20029;-68
2022/08/14 12:58:04;;;;;;;4.20;3.00;;;43.10;40.90;;;;;;5056069;28;20052;-66
2022/08/14 13:00:36;;;;;;;3.30;3.00;;;43.10;41.20;;;;;;5056284;28;20032;-68
2022/08/14 13:03:03;;;;;;;4.70;3.22;;;43.10;41.40;;;;;;5056722;28;20024;-67